Aeroporto :
LOGIN :

Iscrizione | Disclaimer

   EN    FR    IT 

 










Sommario :    VFR   VFR Marginale   IFR   IFR Intensivo   IFR Molto Intensivo
Visibilità : 
Base nubi : 
>= 8 km
>= 3000ft
5 / 8 km
1000 / 3000 ft
1500m / 5 km
500 / 1000 ft
800 / 1500m
200 / 500 ft
< 800m
< 200 ft
Simboli :   Temporali  Nebbia  Neve Forte  Precipitazioni Forti  Vento > 20 kt
SIGMETs :   Varie  Temporali  Ghiacco  Turbolenza  Onda orograficha  Ceneri Vulcaniche






- Altitudine del aeroporto : 741 ft
- Codice IATA : PED


LKPD - Pardubice AB

ULTIMO METAR :
  • 122300Z 27006KT 6000 BKN004 OVC017 00/M00 Q1005 RMK YLO

METARs OBSOLETI :
  • 122200Z 26004KT 5000 -SN BR SCT003 OVC016 00/M00 Q1006 RMK WHT
  • 122100Z 26004KT 6000 -SN SCT003 OVC018 00/M00 Q1006 RMK WHT

TAF TAF LKPD
Valido dal 12 a 18 ore il 13 a 18 ore UTC


121700Z 1218/1318 28004KT 6000 RA BKN010 OVC020
TEMPO 1218/1318 VRB02KT 4000 RA BR BKN006 OVC013
TEMPO 1219/1305 1500 RASN OVC004
TEMPO 1311/1318 1500 RASN OVC004



MetMap, La meteo Aeronautica in un colpo d'occhio ! - Copyright ORBIFLY Dicembre 2007 - Disclaimer

ORBIFLY MET'MAP TEAM :

Programmazione e sviluppo : Alexandra Zaïnal
Concezione e sviluppo : Baudouin d'Aumeries
Co-Programmazione e sviluppo : Marc-Olivier Méhu
Supporto tecnico e logistico : Manuel Goepfert
Aiuto per la traduzione : Arnaldo La Scala

Contatto : metmap@orbifly.com




FONTI E CREDITI :

   NOAA